createdAt,value
2023-12-13T00:01:03.846Z,0.22
2023-12-13T00:03:52.457Z,0.25
2023-12-13T00:06:44.822Z,0.13
2023-12-13T00:09:31.416Z,0.17
2023-12-13T00:12:18.831Z,0.17
2023-12-13T00:15:10.003Z,0.50
2023-12-13T00:17:57.634Z,0.15
2023-12-13T00:20:45.886Z,0.40
2023-12-13T00:23:32.491Z,0.47
2023-12-13T00:26:19.630Z,0.22
2023-12-13T00:29:07.304Z,0.17
2023-12-13T00:31:54.014Z,0.32
2023-12-13T00:34:40.956Z,0.32
2023-12-13T00:37:28.875Z,0.32
2023-12-13T00:40:15.926Z,0.22
2023-12-13T00:43:02.839Z,0.25
2023-12-13T00:45:49.488Z,0.57
2023-12-13T00:48:35.934Z,0.20
2023-12-13T00:51:23.632Z,0.25
2023-12-13T00:54:14.718Z,0.73
2023-12-13T00:57:01.255Z,0.30
2023-12-13T00:59:48.267Z,0.40
2023-12-13T01:02:47.126Z,0.10
2023-12-13T01:05:33.846Z,0.82
2023-12-13T01:08:26.117Z,1.00
2023-12-13T01:11:14.153Z,0.43
2023-12-13T01:14:00.656Z,0.40
2023-12-13T01:16:47.001Z,0.20
2023-12-13T01:19:33.869Z,0.55
2023-12-13T01:22:28.884Z,0.55
2023-12-13T01:25:15.302Z,0.22
2023-12-13T01:28:03.237Z,0.30
2023-12-13T01:30:50.085Z,0.30
2023-12-13T01:33:41.984Z,0.40
2023-12-13T01:36:28.683Z,0.65
2023-12-13T01:39:16.431Z,0.22
2023-12-13T01:42:03.874Z,0.20
2023-12-13T01:44:51.756Z,0.25
2023-12-13T01:47:41.878Z,1.02
2023-12-13T01:50:28.764Z,0.40
2023-12-13T01:53:17.194Z,0.32
2023-12-13T01:56:04.980Z,0.22
2023-12-13T01:58:51.747Z,0.35
2023-12-13T02:01:40.576Z,0.03
2023-12-13T02:04:29.221Z,0.13
2023-12-13T02:07:16.880Z,0.25
2023-12-13T02:10:04.245Z,0.63
2023-12-13T02:12:51.895Z,0.15
2023-12-13T02:15:38.488Z,0.32
2023-12-13T02:18:26.871Z,0.38
2023-12-13T02:21:18.766Z,0.82
2023-12-13T02:24:08.989Z,0.45
2023-12-13T02:26:55.972Z,0.47
2023-12-13T02:29:43.926Z,0.03
2023-12-13T02:32:31.218Z,0.25
2023-12-13T02:35:29.418Z,0.50
2023-12-13T02:38:16.124Z,0.10
2023-12-13T02:41:04.099Z,0.55
2023-12-13T02:43:50.577Z,0.40
2023-12-13T02:46:40.495Z,0.57
2023-12-13T02:49:27.966Z,0.28
2023-12-13T02:52:15.169Z,0.20
2023-12-13T02:55:01.332Z,0.30
2023-12-13T02:57:49.067Z,0.22
2023-12-13T03:00:35.936Z,0.20
2023-12-13T03:03:22.412Z,0.68
2023-12-13T03:06:10.106Z,0.60
2023-12-13T03:08:56.902Z,0.45
2023-12-13T03:11:43.486Z,0.60
2023-12-13T03:14:31.290Z,0.52
2023-12-13T03:17:18.521Z,0.75
2023-12-13T03:20:06.166Z,0.32
2023-12-13T03:22:52.663Z,1.20
2023-12-13T03:25:39.534Z,0.10
2023-12-13T03:28:25.965Z,0.57
2023-12-13T03:31:14.159Z,0.40
2023-12-13T03:34:02.031Z,0.52
2023-12-13T03:36:48.697Z,0.47
2023-12-13T03:39:35.185Z,0.28
2023-12-13T03:42:21.863Z,0.30
2023-12-13T03:45:08.704Z,0.70
2023-12-13T03:47:57.009Z,0.38
2023-12-13T03:50:57.046Z,0.40
2023-12-13T03:53:44.042Z,0.40
2023-12-13T03:56:31.304Z,0.80
2023-12-13T03:59:17.804Z,0.43
2023-12-13T04:02:09.749Z,0.60
2023-12-13T04:04:58.151Z,0.20
2023-12-13T04:07:45.008Z,0.28
2023-12-13T04:10:37.712Z,0.17
2023-12-13T04:13:24.281Z,0.43
2023-12-13T04:16:11.110Z,0.28
2023-12-13T04:19:04.956Z,0.22
2023-12-13T04:21:53.412Z,0.10
2023-12-13T04:24:40.166Z,0.17
2023-12-13T04:27:29.831Z,0.20
2023-12-13T04:30:16.906Z,0.25
2023-12-13T04:33:03.952Z,0.17
2023-12-13T04:35:50.775Z,0.32
2023-12-13T04:38:38.599Z,0.10
2023-12-13T04:41:25.035Z,0.38
2023-12-13T04:44:13.431Z,0.30
2023-12-13T04:47:05.567Z,0.57
2023-12-13T04:49:52.090Z,0.68
2023-12-13T04:52:38.516Z,0.35
2023-12-13T04:55:26.306Z,0.80
2023-12-13T04:58:12.885Z,0.22
2023-12-13T05:01:00.971Z,0.35
2023-12-13T05:03:47.845Z,0.22
2023-12-13T05:06:34.689Z,0.32
2023-12-13T05:09:21.654Z,0.13
2023-12-13T05:12:12.328Z,0.40
2023-12-13T05:14:59.057Z,1.27
2023-12-13T05:17:46.216Z,0.10
2023-12-13T05:20:33.805Z,0.47
2023-12-13T05:23:23.155Z,0.22
2023-12-13T05:26:10.307Z,0.55
2023-12-13T05:28:58.367Z,0.55
2023-12-13T05:31:45.674Z,0.30
2023-12-13T05:34:32.384Z,0.50
2023-12-13T05:37:22.873Z,0.80
2023-12-13T05:40:10.140Z,0.32
2023-12-13T05:43:03.235Z,0.10
2023-12-13T05:45:52.280Z,1.00
2023-12-13T05:48:39.015Z,0.28
2023-12-13T05:51:25.734Z,0.20
2023-12-13T05:54:13.442Z,0.22
2023-12-13T05:57:01.590Z,0.32
2023-12-13T05:59:50.921Z,0.40
2023-12-13T06:02:39.230Z,0.55
2023-12-13T06:05:50.232Z,0.28
2023-12-13T06:08:39.776Z,0.30
2023-12-13T06:11:26.415Z,0.85
2023-12-13T06:14:14.101Z,0.32
2023-12-13T06:17:04.910Z,0.45
2023-12-13T06:19:53.088Z,0.10
2023-12-13T06:22:40.054Z,0.20
2023-12-13T06:25:40.942Z,0.68
2023-12-13T06:28:28.068Z,0.20
2023-12-13T06:31:21.925Z,0.50
2023-12-13T06:34:12.146Z,0.10
2023-12-13T06:37:00.061Z,0.40
2023-12-13T06:39:48.889Z,0.40
2023-12-13T06:42:37.590Z,0.32
2023-12-13T06:45:24.322Z,0.10
2023-12-13T06:48:12.768Z,0.30
2023-12-13T06:51:11.538Z,0.43
2023-12-13T06:54:00.182Z,0.30
2023-12-13T06:56:47.575Z,0.22
2023-12-13T06:59:34.303Z,0.30
2023-12-13T07:02:20.708Z,0.20
2023-12-13T07:05:08.692Z,0.15
2023-12-13T07:07:56.208Z,0.38
2023-12-13T07:10:46.934Z,0.68
2023-12-13T07:13:33.652Z,0.13
2023-12-13T07:16:20.211Z,0.22
2023-12-13T07:19:06.767Z,0.10
2023-12-13T07:21:53.241Z,0.22
2023-12-13T07:24:40.830Z,0.47
2023-12-13T07:27:36.251Z,0.17
2023-12-13T07:30:26.061Z,0.50
2023-12-13T07:33:13.785Z,0.55
2023-12-13T07:36:00.535Z,0.22
2023-12-13T07:38:47.299Z,0.13
2023-12-13T07:41:33.980Z,0.55
2023-12-13T07:44:20.868Z,0.10
2023-12-13T07:47:09.000Z,0.13
2023-12-13T07:49:59.676Z,0.20
2023-12-13T07:52:51.804Z,0.13
2023-12-13T07:55:38.237Z,0.20
2023-12-13T07:58:24.637Z,0.17
2023-12-13T08:01:10.979Z,0.17
2023-12-13T08:03:59.846Z,0.30
2023-12-13T08:06:46.856Z,0.20
2023-12-13T08:09:35.487Z,0.13
2023-12-13T08:12:22.191Z,0.70
2023-12-13T08:15:09.094Z,0.03
2023-12-13T08:18:02.039Z,0.40
2023-12-13T08:20:58.249Z,0.25
2023-12-13T08:23:44.996Z,0.22
2023-12-13T08:26:31.696Z,1.42
2023-12-13T08:29:24.936Z,0.30
2023-12-13T08:32:21.355Z,0.03
2023-12-13T08:35:08.421Z,0.22
2023-12-13T08:37:56.701Z,0.63
2023-12-13T08:40:43.548Z,0.20
2023-12-13T08:43:30.180Z,0.70
2023-12-13T08:46:16.813Z,0.63
2023-12-13T08:49:03.744Z,0.25
2023-12-13T08:51:50.393Z,0.55
2023-12-13T08:54:38.135Z,0.28
2023-12-13T08:57:24.990Z,0.55
2023-12-13T09:00:12.653Z,0.45
2023-12-13T09:02:59.448Z,0.30
2023-12-13T09:05:46.240Z,0.75
2023-12-13T09:09:01.165Z,0.15
2023-12-13T09:11:49.214Z,0.73
2023-12-13T09:14:35.913Z,1.42
2023-12-13T09:17:22.400Z,0.32
2023-12-13T09:20:16.157Z,0.35
2023-12-13T09:23:07.248Z,0.52
2023-12-13T09:25:54.101Z,0.45
2023-12-13T09:28:48.408Z,0.40
2023-12-13T09:31:35.388Z,0.73
2023-12-13T09:34:22.888Z,0.50
2023-12-13T09:37:09.254Z,0.28
2023-12-13T09:40:02.363Z,0.43
2023-12-13T09:42:51.710Z,0.68
2023-12-13T09:45:41.054Z,1.15
2023-12-13T09:48:27.889Z,1.58
2023-12-13T09:51:24.276Z,1.02
2023-12-13T09:54:12.198Z,0.70
2023-12-13T09:56:58.986Z,0.95
2023-12-13T09:59:47.194Z,1.73
2023-12-13T10:02:35.847Z,1.33
2023-12-13T10:05:24.424Z,0.77
2023-12-13T10:08:11.626Z,1.05
2023-12-13T10:10:58.686Z,0.82
2023-12-13T10:13:45.192Z,0.80
2023-12-13T10:16:41.510Z,0.82
2023-12-13T10:19:29.769Z,1.10
2023-12-13T10:22:18.138Z,1.08
2023-12-13T10:25:05.103Z,0.57
2023-12-13T10:27:53.261Z,0.43
2023-12-13T10:30:40.434Z,0.85
2023-12-13T10:33:27.294Z,0.28
2023-12-13T10:36:25.974Z,0.52
2023-12-13T10:39:15.026Z,0.22
2023-12-13T10:42:03.234Z,0.30
2023-12-13T10:44:52.655Z,0.40
2023-12-13T10:47:41.772Z,1.08
2023-12-13T10:50:29.048Z,0.38
2023-12-13T10:53:17.630Z,0.22
2023-12-13T10:56:06.062Z,0.03
2023-12-13T10:58:53.751Z,0.20
2023-12-13T11:01:42.691Z,0.70
2023-12-13T11:04:31.142Z,0.40
2023-12-13T11:07:22.360Z,0.40
2023-12-13T11:10:11.728Z,0.22
2023-12-13T11:13:00.180Z,0.25
2023-12-13T11:15:47.678Z,0.35
2023-12-13T11:18:34.902Z,0.10
2023-12-13T11:21:27.365Z,0.47
2023-12-13T11:24:15.887Z,0.32
2023-12-13T11:27:11.581Z,0.80
2023-12-13T11:29:58.495Z,0.55
2023-12-13T11:32:45.825Z,0.22
2023-12-13T11:35:32.656Z,0.08
2023-12-13T11:38:19.600Z,0.32
2023-12-13T11:41:06.585Z,0.25
2023-12-13T11:43:55.092Z,0.35
2023-12-13T11:46:41.793Z,0.10
2023-12-13T11:49:28.386Z,0.22
2023-12-13T11:52:15.659Z,0.32
2023-12-13T11:55:04.222Z,0.17
2023-12-13T11:57:50.997Z,0.52
2023-12-13T12:00:39.746Z,0.28
2023-12-13T12:03:26.415Z,0.17
2023-12-13T12:06:17.254Z,0.15
2023-12-13T12:09:04.871Z,0.10
2023-12-13T12:11:54.252Z,0.32
2023-12-13T12:14:45.051Z,0.30
2023-12-13T12:17:33.253Z,0.03
2023-12-13T12:20:20.398Z,0.30
2023-12-13T12:23:07.758Z,0.25
2023-12-13T12:25:54.821Z,0.63
2023-12-13T12:28:42.558Z,0.20
2023-12-13T12:31:29.669Z,0.60
2023-12-13T12:34:17.898Z,0.03
2023-12-13T12:37:07.776Z,0.20
2023-12-13T12:39:54.262Z,0.88
2023-12-13T12:42:42.915Z,0.30
2023-12-13T12:45:30.198Z,0.35
2023-12-13T12:48:16.995Z,0.45
2023-12-13T12:51:05.217Z,0.22
2023-12-13T12:53:51.804Z,0.13
2023-12-13T12:56:39.066Z,0.28
2023-12-13T12:59:25.885Z,0.45
2023-12-13T13:02:12.893Z,0.00
2023-12-13T13:04:59.679Z,0.17
2023-12-13T13:07:53.663Z,0.47
2023-12-13T13:10:41.677Z,0.17
2023-12-13T13:13:27.965Z,0.40
2023-12-13T13:16:15.778Z,0.10
2023-12-13T13:19:02.579Z,0.00
2023-12-13T13:21:49.006Z,0.35
2023-12-13T13:24:36.707Z,0.05
2023-12-13T13:27:28.523Z,0.68
2023-12-13T13:30:16.565Z,0.25
2023-12-13T13:33:07.323Z,0.17
2023-12-13T13:35:54.149Z,0.03
2023-12-13T13:38:40.842Z,0.10
2023-12-13T13:41:29.682Z,0.50
2023-12-13T13:44:16.516Z,0.30
2023-12-13T13:47:03.391Z,0.57
2023-12-13T13:49:50.548Z,0.03
2023-12-13T13:52:38.748Z,0.03
2023-12-13T13:55:25.592Z,0.35
2023-12-13T13:58:14.210Z,0.13
2023-12-13T14:01:00.744Z,0.45
2023-12-13T14:03:47.920Z,0.30
2023-12-13T14:06:34.568Z,0.38
2023-12-13T14:09:21.608Z,0.20
2023-12-13T14:12:09.136Z,0.30
2023-12-13T14:18:37.670Z,0.30
2023-12-13T14:21:24.717Z,0.20
2023-12-13T14:24:11.110Z,0.35
2023-12-13T14:26:57.661Z,0.43
2023-12-13T14:29:44.220Z,0.00
2023-12-13T14:32:31.135Z,0.35
2023-12-13T14:35:19.586Z,0.03
2023-12-13T14:38:06.649Z,0.32
2023-12-13T14:40:53.300Z,0.00
2023-12-13T14:43:40.241Z,0.35
2023-12-13T14:46:26.973Z,0.20
2023-12-13T14:49:13.640Z,0.08
2023-12-13T14:52:07.635Z,0.08
2023-12-13T14:54:54.029Z,0.25
2023-12-13T14:57:43.786Z,0.40
2023-12-13T15:00:30.510Z,0.98
2023-12-13T15:03:18.011Z,0.43
2023-12-13T15:06:05.315Z,0.30
2023-12-13T15:08:53.045Z,0.68
2023-12-13T15:11:39.773Z,0.43
2023-12-13T15:14:26.650Z,0.20
2023-12-13T15:17:18.480Z,0.35
2023-12-13T15:20:08.848Z,0.17
2023-12-13T15:22:56.041Z,0.25
2023-12-13T15:25:44.436Z,0.20
2023-12-13T15:28:32.934Z,0.28
2023-12-13T15:31:20.187Z,1.20
2023-12-13T15:34:13.579Z,0.68
2023-12-13T15:36:59.997Z,1.08
2023-12-13T15:39:51.206Z,0.52
2023-12-13T15:42:39.633Z,0.25
2023-12-13T15:45:26.977Z,0.50
2023-12-13T15:48:13.780Z,0.90
2023-12-13T15:51:00.228Z,0.50
2023-12-13T15:53:57.191Z,0.50
2023-12-13T15:56:44.150Z,0.50
2023-12-13T15:59:32.830Z,0.38
2023-12-13T16:02:20.647Z,0.60
2023-12-13T16:05:09.751Z,0.13
2023-12-13T16:07:56.561Z,0.20
2023-12-13T16:10:47.809Z,0.68
2023-12-13T16:13:35.031Z,0.40
2023-12-13T16:16:23.509Z,0.43
2023-12-13T16:19:10.204Z,0.17
2023-12-13T16:22:02.184Z,0.47
2023-12-13T16:27:37.149Z,0.52
2023-12-13T16:30:25.355Z,0.70
2023-12-13T16:33:13.637Z,0.50
2023-12-13T16:36:06.898Z,0.40
2023-12-13T16:38:53.540Z,0.68
2023-12-13T16:41:47.224Z,0.00
2023-12-13T16:44:33.820Z,0.38
2023-12-13T16:47:23.090Z,0.40
2023-12-13T16:50:12.356Z,0.55
2023-12-13T16:52:59.261Z,0.25
2023-12-13T16:55:45.931Z,0.50
2023-12-13T16:58:32.805Z,0.93
2023-12-13T17:01:19.683Z,0.10
2023-12-13T17:04:07.723Z,0.32
2023-12-13T17:06:56.137Z,0.60
2023-12-13T17:09:42.916Z,0.30
2023-12-13T17:12:29.728Z,2.47
2023-12-13T17:15:16.601Z,1.08
2023-12-13T17:18:12.359Z,0.30
2023-12-13T17:20:59.617Z,0.22
2023-12-13T17:23:47.589Z,0.20
2023-12-13T17:26:35.232Z,0.28
2023-12-13T17:29:26.793Z,0.28
2023-12-13T17:32:21.738Z,0.38
2023-12-13T17:35:08.410Z,0.43
2023-12-13T17:38:02.393Z,0.20
2023-12-13T17:40:50.733Z,0.00
2023-12-13T17:43:37.590Z,0.30
2023-12-13T17:46:52.225Z,1.20
2023-12-13T17:49:39.387Z,0.43
2023-12-13T17:52:34.700Z,0.50
2023-12-13T17:55:21.088Z,0.60
2023-12-13T17:58:15.541Z,1.23
2023-12-13T18:04:11.755Z,0.15
2023-12-13T18:07:07.029Z,0.32
2023-12-13T18:09:53.853Z,0.22
2023-12-13T18:12:41.435Z,0.25
2023-12-13T18:15:29.379Z,1.25
2023-12-13T18:18:16.163Z,0.43
2023-12-13T18:21:04.299Z,1.05
2023-12-13T18:23:51.709Z,0.45
2023-12-13T18:26:38.374Z,0.30
2023-12-13T18:29:31.680Z,0.85
2023-12-13T18:32:20.123Z,0.60
2023-12-13T18:35:07.364Z,1.02
2023-12-13T18:37:54.261Z,0.20
2023-12-13T18:40:41.313Z,0.60
2023-12-13T18:43:28.432Z,0.35
2023-12-13T18:46:14.971Z,1.42
2023-12-13T18:49:03.174Z,0.40
2023-12-13T18:51:51.652Z,0.45
2023-12-13T18:54:46.856Z,0.55
2023-12-13T18:57:33.689Z,0.35
2023-12-13T19:00:22.325Z,0.22
2023-12-13T19:03:09.023Z,0.57
2023-12-13T19:06:06.757Z,0.32
2023-12-13T19:08:54.044Z,0.32
2023-12-13T19:11:41.185Z,0.55
2023-12-13T19:14:30.332Z,0.10
2023-12-13T19:17:17.215Z,0.85
2023-12-13T19:20:05.256Z,0.30
2023-12-13T19:22:53.947Z,0.50
2023-12-13T19:25:41.035Z,1.17
2023-12-13T19:28:27.961Z,4.30
2023-12-13T19:31:15.026Z,4.18
2023-12-13T19:34:01.918Z,2.00
2023-12-13T19:36:56.301Z,2.22
2023-12-13T19:40:06.001Z,1.92
2023-12-13T19:42:54.286Z,1.90
2023-12-13T19:45:41.145Z,3.40
2023-12-13T19:48:28.329Z,2.80
2023-12-13T19:51:35.665Z,3.53
2023-12-13T19:54:22.552Z,3.20
2023-12-13T19:57:09.646Z,3.20
2023-12-13T19:59:57.940Z,3.25
2023-12-13T20:02:45.236Z,2.63
2023-12-13T20:05:32.068Z,5.25
2023-12-13T20:08:19.344Z,4.25
2023-12-13T20:11:06.133Z,2.83
2023-12-13T20:13:56.662Z,2.60
2023-12-13T20:16:46.244Z,2.13
2023-12-13T20:19:43.544Z,1.70
2023-12-13T20:22:43.970Z,1.45
2023-12-13T20:25:31.574Z,1.45
2023-12-13T20:32:21.256Z,1.17
2023-12-13T20:35:10.743Z,1.75
2023-12-13T20:38:01.102Z,1.60
2023-12-13T20:40:48.934Z,1.30
2023-12-13T20:43:41.226Z,1.45
2023-12-13T20:46:33.654Z,1.05
2023-12-13T20:49:28.122Z,1.85
2023-12-13T20:52:16.664Z,1.60
2023-12-13T20:55:04.094Z,2.22
2023-12-13T20:57:51.321Z,1.80
2023-12-13T21:00:49.389Z,1.60
2023-12-13T21:03:55.598Z,1.10
2023-12-13T21:06:43.071Z,1.92
2023-12-13T21:09:34.427Z,1.35
2023-12-13T21:12:21.171Z,1.15
2023-12-13T21:15:08.517Z,1.65
2023-12-13T21:17:55.165Z,1.85
2023-12-13T21:20:41.541Z,1.48
2023-12-13T21:23:28.149Z,1.65
2023-12-13T21:26:16.223Z,1.35
2023-12-13T21:29:12.912Z,1.30
2023-12-13T21:32:12.337Z,2.33
2023-12-13T21:35:00.400Z,2.03
2023-12-13T21:37:47.021Z,3.08
2023-12-13T21:40:34.172Z,2.67
2023-12-13T21:43:25.466Z,1.73
2023-12-13T21:46:20.320Z,1.73
2023-12-13T21:49:07.055Z,1.55
2023-12-13T21:51:54.256Z,2.30
2023-12-13T21:54:43.414Z,2.28
2023-12-13T21:57:30.345Z,1.55
2023-12-13T22:00:26.275Z,2.75
2023-12-13T22:03:13.018Z,1.67
2023-12-13T22:05:59.829Z,2.40
2023-12-13T22:08:47.239Z,1.85
2023-12-13T22:11:34.229Z,2.83
2023-12-13T22:14:24.829Z,2.13
2023-12-13T22:17:12.860Z,2.55
2023-12-13T22:20:09.607Z,4.03
2023-12-13T22:22:56.454Z,3.03
2023-12-13T22:25:43.074Z,2.72
2023-12-13T22:28:29.709Z,2.80
2023-12-13T22:31:16.321Z,3.25
2023-12-13T22:34:04.126Z,3.10
2023-12-13T22:36:50.927Z,2.45
2023-12-13T22:39:37.638Z,2.63
2023-12-13T22:42:24.409Z,2.88
2023-12-13T22:45:12.037Z,2.28
2023-12-13T22:47:58.826Z,2.35
2023-12-13T22:50:55.557Z,3.28
2023-12-13T22:53:42.327Z,3.00
2023-12-13T22:56:35.035Z,3.22
2023-12-13T22:59:21.555Z,1.80
2023-12-13T23:02:08.634Z,2.90
2023-12-13T23:05:00.779Z,3.40
2023-12-13T23:07:48.876Z,2.25
2023-12-13T23:10:35.527Z,3.22
2023-12-13T23:13:21.939Z,3.08
2023-12-13T23:16:08.843Z,3.50
2023-12-13T23:19:02.031Z,2.70
2023-12-13T23:21:54.130Z,3.75
2023-12-13T23:24:42.366Z,3.08
2023-12-13T23:27:29.629Z,2.92
2023-12-13T23:30:16.212Z,3.67
2023-12-13T23:33:02.742Z,2.85
2023-12-13T23:36:10.209Z,4.07
2023-12-13T23:38:56.708Z,4.20
2023-12-13T23:41:44.543Z,3.95
2023-12-13T23:44:37.206Z,3.97
2023-12-13T23:47:24.035Z,4.15
2023-12-13T23:50:10.921Z,3.13
2023-12-13T23:52:57.663Z,5.60
2023-12-13T23:55:44.520Z,4.38
2023-12-13T23:58:32.286Z,4.28
